sensor_id;sensor_type;location;lat;lon;timestamp;pressure;altitude;pressure_sealevel;temperature
48003;BMP280;33768;48.578;11.574;2022-12-07T00:00:49;96432.66;;;3.02
48003;BMP280;33768;48.578;11.574;2022-12-07T00:03:56;96427.75;;;3.01
48003;BMP280;33768;48.578;11.574;2022-12-07T00:07:04;96430.91;;;2.99
48003;BMP280;33768;48.578;11.574;2022-12-07T00:10:08;96426.25;;;3.00
48003;BMP280;33768;48.578;11.574;2022-12-07T00:13:12;96423.56;;;3.00
48003;BMP280;33768;48.578;11.574;2022-12-07T00:16:18;96422.31;;;2.95
48003;BMP280;33768;48.578;11.574;2022-12-07T00:19:23;96411.47;;;2.90
48003;BMP280;33768;48.578;11.574;2022-12-07T00:22:27;96420.03;;;2.88
48003;BMP280;33768;48.578;11.574;2022-12-07T00:25:32;96422.19;;;2.84
48003;BMP280;33768;48.578;11.574;2022-12-07T00:28:36;96420.25;;;2.85
48003;BMP280;33768;48.578;11.574;2022-12-07T00:31:41;96418.47;;;2.82
48003;BMP280;33768;48.578;11.574;2022-12-07T00:34:45;96416.56;;;2.82
48003;BMP280;33768;48.578;11.574;2022-12-07T00:37:49;96420.44;;;2.81
48003;BMP280;33768;48.578;11.574;2022-12-07T00:40:55;96413.84;;;2.82
48003;BMP280;33768;48.578;11.574;2022-12-07T00:44:00;96410.88;;;2.80
48003;BMP280;33768;48.578;11.574;2022-12-07T00:47:03;96424.09;;;2.79
48003;BMP280;33768;48.578;11.574;2022-12-07T00:50:08;96418.44;;;2.77
48003;BMP280;33768;48.578;11.574;2022-12-07T00:53:13;96415.72;;;2.77
48003;BMP280;33768;48.578;11.574;2022-12-07T00:56:26;96422.34;;;2.76
48003;BMP280;33768;48.578;11.574;2022-12-07T00:59:31;96419.66;;;2.76
48003;BMP280;33768;48.578;11.574;2022-12-07T01:02:35;96413.97;;;2.74
48003;BMP280;33768;48.578;11.574;2022-12-07T01:05:40;96417.63;;;2.71
48003;BMP280;33768;48.578;11.574;2022-12-07T01:08:44;96415.22;;;2.73
48003;BMP280;33768;48.578;11.574;2022-12-07T01:11:48;96413.72;;;2.72
48003;BMP280;33768;48.578;11.574;2022-12-07T01:14:52;96423.03;;;2.71
48003;BMP280;33768;48.578;11.574;2022-12-07T01:17:56;96426.19;;;2.69
48003;BMP280;33768;48.578;11.574;2022-12-07T01:24:09;96428.63;;;2.67
48003;BMP280;33768;48.578;11.574;2022-12-07T01:27:14;96426.94;;;2.70
48003;BMP280;33768;48.578;11.574;2022-12-07T01:30:18;96421.56;;;2.70
48003;BMP280;33768;48.578;11.574;2022-12-07T01:33:22;96417.63;;;2.71
48003;BMP280;33768;48.578;11.574;2022-12-07T01:36:29;96421.56;;;2.70
48003;BMP280;33768;48.578;11.574;2022-12-07T01:39:33;96420.53;;;2.67
48003;BMP280;33768;48.578;11.574;2022-12-07T01:42:37;96420.28;;;2.65
48003;BMP280;33768;48.578;11.574;2022-12-07T01:45:41;96420.28;;;2.65
48003;BMP280;33768;48.578;11.574;2022-12-07T01:48:45;96419.53;;;2.65
48003;BMP280;33768;48.578;11.574;2022-12-07T01:51:52;96411.44;;;2.65
48003;BMP280;33768;48.578;11.574;2022-12-07T01:55:05;96404.56;;;2.64
48003;BMP280;33768;48.578;11.574;2022-12-07T01:58:11;96413.38;;;2.64
48003;BMP280;33768;48.578;11.574;2022-12-07T02:01:16;96416.56;;;2.63
48003;BMP280;33768;48.578;11.574;2022-12-07T02:04:21;96403.56;;;2.61
48003;BMP280;33768;48.578;11.574;2022-12-07T02:07:28;96410.44;;;2.62
48003;BMP280;33768;48.578;11.574;2022-12-07T02:10:33;96407.47;;;2.60
48003;BMP280;33768;48.578;11.574;2022-12-07T02:13:40;96405.25;;;2.59
48003;BMP280;33768;48.578;11.574;2022-12-07T02:20:26;96408.88;;;2.56
48003;BMP280;33768;48.578;11.574;2022-12-07T02:24:40;96403.97;;;2.54
48003;BMP280;33768;48.578;11.574;2022-12-07T02:30:40;96413.28;;;2.53
48003;BMP280;33768;48.578;11.574;2022-12-07T02:33:51;96411.06;;;2.52
48003;BMP280;33768;48.578;11.574;2022-12-07T02:37:03;96412.25;;;2.51
48003;BMP280;33768;48.578;11.574;2022-12-07T02:43:26;96403.97;;;2.54
48003;BMP280;33768;48.578;11.574;2022-12-07T02:46:38;96405.91;;;2.54
48003;BMP280;33768;48.578;11.574;2022-12-07T02:49:43;96400.28;;;2.52
48003;BMP280;33768;48.578;11.574;2022-12-07T02:52:47;96404.16;;;2.51
48003;BMP280;33768;48.578;11.574;2022-12-07T02:55:52;96404.16;;;2.51
48003;BMP280;33768;48.578;11.574;2022-12-07T03:02:31;96401.03;;;2.52
48003;BMP280;33768;48.578;11.574;2022-12-07T03:09:23;96395.63;;;2.52
48003;BMP280;33768;48.578;11.574;2022-12-07T03:12:47;96388.00;;;2.51
48003;BMP280;33768;48.578;11.574;2022-12-07T03:19:10;96393.88;;;2.49
48003;BMP280;33768;48.578;11.574;2022-12-07T03:22:17;96393.88;;;2.49
48003;BMP280;33768;48.578;11.574;2022-12-07T03:25:22;96393.41;;;2.51
48003;BMP280;33768;48.578;11.574;2022-12-07T03:28:31;96387.28;;;2.50
48003;BMP280;33768;48.578;11.574;2022-12-07T03:31:40;96402.72;;;2.50
48003;BMP280;33768;48.578;11.574;2022-12-07T03:35:00;96390.91;;;2.48
48003;BMP280;33768;48.578;11.574;2022-12-07T03:38:19;96400.19;;;2.47
48003;BMP280;33768;48.578;11.574;2022-12-07T03:41:30;96396.50;;;2.44
48003;BMP280;33768;48.578;11.574;2022-12-07T03:44:35;96389.19;;;2.45
48003;BMP280;33768;48.578;11.574;2022-12-07T03:47:53;96389.91;;;2.45
48003;BMP280;33768;48.578;11.574;2022-12-07T03:51:22;96386.00;;;2.46
48003;BMP280;33768;48.578;11.574;2022-12-07T03:54:36;96391.88;;;2.45
48003;BMP280;33768;48.578;11.574;2022-12-07T03:57:42;96383.78;;;2.45
48003;BMP280;33768;48.578;11.574;2022-12-07T04:00:49;96390.44;;;2.49
48003;BMP280;33768;48.578;11.574;2022-12-07T04:03:53;96388.22;;;2.48
48003;BMP280;33768;48.578;11.574;2022-12-07T04:06:57;96392.38;;;2.48
48003;BMP280;33768;48.578;11.574;2022-12-07T04:10:02;96387.72;;;2.49
48003;BMP280;33768;48.578;11.574;2022-12-07T04:13:07;96395.81;;;2.49
48003;BMP280;33768;48.578;11.574;2022-12-07T04:16:11;96386.53;;;2.50
48003;BMP280;33768;48.578;11.574;2022-12-07T04:19:17;96386.31;;;2.53
48003;BMP280;33768;48.578;11.574;2022-12-07T04:22:22;96381.41;;;2.52
48003;BMP280;33768;48.578;11.574;2022-12-07T04:25:26;96375.75;;;2.50
48003;BMP280;33768;48.578;11.574;2022-12-07T04:28:31;96379.94;;;2.51
48003;BMP280;33768;48.578;11.574;2022-12-07T04:31:35;96374.00;;;2.47
48003;BMP280;33768;48.578;11.574;2022-12-07T04:34:40;96367.63;;;2.45
48003;BMP280;33768;48.578;11.574;2022-12-07T04:37:44;96372.25;;;2.44
48003;BMP280;33768;48.578;11.574;2022-12-07T04:40:48;96375.22;;;2.46
48003;BMP280;33768;48.578;11.574;2022-12-07T04:43:58;96369.81;;;2.46
48003;BMP280;33768;48.578;11.574;2022-12-07T04:47:02;96372.78;;;2.48
48003;BMP280;33768;48.578;11.574;2022-12-07T04:50:09;96375.50;;;2.48
48003;BMP280;33768;48.578;11.574;2022-12-07T04:53:13;96375.50;;;2.48
48003;BMP280;33768;48.578;11.574;2022-12-07T04:56:17;96373.00;;;2.45
48003;BMP280;33768;48.578;11.574;2022-12-07T04:59:22;96371.25;;;2.42
48003;BMP280;33768;48.578;11.574;2022-12-07T05:02:26;96379.13;;;2.45
48003;BMP280;33768;48.578;11.574;2022-12-07T05:05:30;96387.50;;;2.47
48003;BMP280;33768;48.578;11.574;2022-12-07T05:08:34;96372.78;;;2.48
48003;BMP280;33768;48.578;11.574;2022-12-07T05:11:39;96366.13;;;2.44
48003;BMP280;33768;48.578;11.574;2022-12-07T05:14:43;96365.84;;;2.42
48003;BMP280;33768;48.578;11.574;2022-12-07T05:17:47;96372.25;;;2.44
48003;BMP280;33768;48.578;11.574;2022-12-07T05:20:51;96371.44;;;2.38
48003;BMP280;33768;48.578;11.574;2022-12-07T05:23:56;96372.94;;;2.39
48003;BMP280;33768;48.578;11.574;2022-12-07T05:27:00;96367.53;;;2.39
48003;BMP280;33768;48.578;11.574;2022-12-07T05:30:05;96371.19;;;2.36
48003;BMP280;33768;48.578;11.574;2022-12-07T05:33:09;96366.47;;;2.31
48003;BMP280;33768;48.578;11.574;2022-12-07T05:36:14;96363.03;;;2.31
48003;BMP280;33768;48.578;11.574;2022-12-07T05:39:18;96359.34;;;2.28
48003;BMP280;33768;48.578;11.574;2022-12-07T05:42:21;96356.84;;;2.25
48003;BMP280;33768;48.578;11.574;2022-12-07T05:45:25;96344.53;;;2.18
48003;BMP280;33768;48.578;11.574;2022-12-07T05:48:30;96357.19;;;2.13
48003;BMP280;33768;48.578;11.574;2022-12-07T05:51:34;96358.22;;;2.15
48003;BMP280;33768;48.578;11.574;2022-12-07T05:54:38;96346.94;;;2.17
48003;BMP280;33768;48.578;11.574;2022-12-07T05:57:42;96357.31;;;2.04
48003;BMP280;33768;48.578;11.574;2022-12-07T06:01:09;96351.34;;;1.94
48003;BMP280;33768;48.578;11.574;2022-12-07T06:04:13;96347.75;;;1.83
48003;BMP280;33768;48.578;11.574;2022-12-07T06:07:17;96355.69;;;1.72
48003;BMP280;33768;48.578;11.574;2022-12-07T06:10:21;96349.94;;;1.65
48003;BMP280;33768;48.578;11.574;2022-12-07T06:13:25;96343.47;;;1.57
48003;BMP280;33768;48.578;11.574;2022-12-07T06:16:29;96347.78;;;1.49
48003;BMP280;33768;48.578;11.574;2022-12-07T06:19:34;96343.50;;;1.43
48003;BMP280;33768;48.578;11.574;2022-12-07T06:22:40;96349.28;;;1.36
48003;BMP280;33768;48.578;11.574;2022-12-07T06:25:47;96347.22;;;1.31
48003;BMP280;33768;48.578;11.574;2022-12-07T06:28:52;96344.00;;;1.27
48003;BMP280;33768;48.578;11.574;2022-12-07T06:31:56;96352.00;;;1.22
48003;BMP280;33768;48.578;11.574;2022-12-07T06:35:01;96354.41;;;1.20
48003;BMP280;33768;48.578;11.574;2022-12-07T06:38:05;96366.81;;;1.17
48003;BMP280;33768;48.578;11.574;2022-12-07T06:41:09;96358.75;;;1.17
48003;BMP280;33768;48.578;11.574;2022-12-07T06:44:14;96364.13;;;1.17
48003;BMP280;33768;48.578;11.574;2022-12-07T06:47:18;96358.56;;;1.21
48003;BMP280;33768;48.578;11.574;2022-12-07T06:50:22;96359.03;;;1.19
48003;BMP280;33768;48.578;11.574;2022-12-07T06:53:26;96367.28;;;1.16
48003;BMP280;33768;48.578;11.574;2022-12-07T06:56:31;96367.75;;;1.14
48003;BMP280;33768;48.578;11.574;2022-12-07T06:59:35;96359.69;;;1.14
48003;BMP280;33768;48.578;11.574;2022-12-07T07:02:40;96362.38;;;1.14
48003;BMP280;33768;48.578;11.574;2022-12-07T07:05:44;96367.47;;;1.12
48003;BMP280;33768;48.578;11.574;2022-12-07T07:08:49;96379.53;;;1.17
48003;BMP280;33768;48.578;11.574;2022-12-07T07:11:53;96381.75;;;1.18
48003;BMP280;33768;48.578;11.574;2022-12-07T07:14:57;96376.38;;;1.18
48003;BMP280;33768;48.578;11.574;2022-12-07T07:18:02;96383.97;;;1.20
48003;BMP280;33768;48.578;11.574;2022-12-07T07:21:07;96385.94;;;1.19
48003;BMP280;33768;48.578;11.574;2022-12-07T07:24:12;96389.81;;;1.18
48003;BMP280;33768;48.578;11.574;2022-12-07T07:27:16;96396.69;;;1.19
48003;BMP280;33768;48.578;11.574;2022-12-07T07:30:20;96392.03;;;1.20
48003;BMP280;33768;48.578;11.574;2022-12-07T07:33:25;96401.41;;;1.24
48003;BMP280;33768;48.578;11.574;2022-12-07T07:36:29;96401.22;;;1.27
48003;BMP280;33768;48.578;11.574;2022-12-07T07:39:34;96414.47;;;1.31
48003;BMP280;33768;48.578;11.574;2022-12-07T07:42:38;96416.41;;;1.30
48003;BMP280;33768;48.578;11.574;2022-12-07T07:45:42;96425.91;;;1.26
48003;BMP280;33768;48.578;11.574;2022-12-07T07:48:46;96426.34;;;1.24
48003;BMP280;33768;48.578;11.574;2022-12-07T07:51:51;96431.53;;;1.28
48003;BMP280;33768;48.578;11.574;2022-12-07T07:54:55;96424.19;;;1.28
48003;BMP280;33768;48.578;11.574;2022-12-07T07:57:59;96435.72;;;1.29
48003;BMP280;33768;48.578;11.574;2022-12-07T08:01:05;96430.59;;;1.31
48003;BMP280;33768;48.578;11.574;2022-12-07T08:04:10;96430.88;;;1.47
48003;BMP280;33768;48.578;11.574;2022-12-07T08:07:14;96422.59;;;1.65
48003;BMP280;33768;48.578;11.574;2022-12-07T08:10:19;96422.84;;;1.81
48003;BMP280;33768;48.578;11.574;2022-12-07T08:13:23;96428.53;;;2.03
48003;BMP280;33768;48.578;11.574;2022-12-07T08:16:27;96434.97;;;2.45
48003;BMP280;33768;48.578;11.574;2022-12-07T08:19:32;96434.47;;;2.85
48003;BMP280;33768;48.578;11.574;2022-12-07T08:22:36;96433.47;;;3.08
48003;BMP280;33768;48.578;11.574;2022-12-07T08:25:40;96424.44;;;3.11
48003;BMP280;33768;48.578;11.574;2022-12-07T08:28:44;96428.59;;;3.12
48003;BMP280;33768;48.578;11.574;2022-12-07T08:31:48;96424.44;;;3.11
48003;BMP280;33768;48.578;11.574;2022-12-07T08:34:53;96428.78;;;3.03
48003;BMP280;33768;48.578;11.574;2022-12-07T08:37:57;96433.44;;;3.03
48003;BMP280;33768;48.578;11.574;2022-12-07T08:41:02;96425.94;;;3.17
48003;BMP280;33768;48.578;11.574;2022-12-07T08:44:06;96428.72;;;3.23
48003;BMP280;33768;48.578;11.574;2022-12-07T08:47:10;96428.03;;;3.28
48003;BMP280;33768;48.578;11.574;2022-12-07T08:50:14;96426.34;;;3.30
48003;BMP280;33768;48.578;11.574;2022-12-07T08:53:18;96426.88;;;3.40
48003;BMP280;33768;48.578;11.574;2022-12-07T08:56:22;96432.75;;;3.63
48003;BMP280;33768;48.578;11.574;2022-12-07T08:59:27;96433.09;;;3.76
48003;BMP280;33768;48.578;11.574;2022-12-07T09:02:32;96429.59;;;3.70
48003;BMP280;33768;48.578;11.574;2022-12-07T09:05:36;96430.94;;;3.55
48003;BMP280;33768;48.578;11.574;2022-12-07T09:08:45;96434.03;;;3.42
48003;BMP280;33768;48.578;11.574;2022-12-07T09:11:49;96443.25;;;3.31
48003;BMP280;33768;48.578;11.574;2022-12-07T09:14:54;96438.81;;;3.28
48003;BMP280;33768;48.578;11.574;2022-12-07T09:17:58;96440.59;;;3.36
48003;BMP280;33768;48.578;11.574;2022-12-07T09:21:02;96435.84;;;3.51
48003;BMP280;33768;48.578;11.574;2022-12-07T09:24:06;96446.97;;;3.64
48003;BMP280;33768;48.578;11.574;2022-12-07T09:27:11;96444.16;;;3.78
48003;BMP280;33768;48.578;11.574;2022-12-07T09:30:15;96439.34;;;3.62
48003;BMP280;33768;48.578;11.574;2022-12-07T09:33:19;96434.78;;;3.43
48003;BMP280;33768;48.578;11.574;2022-12-07T09:36:24;96444.47;;;3.30
48003;BMP280;33768;48.578;11.574;2022-12-07T09:39:29;96427.63;;;3.40
48003;BMP280;33768;48.578;11.574;2022-12-07T09:42:36;96423.59;;;3.55
48003;BMP280;33768;48.578;11.574;2022-12-07T09:45:41;96427.94;;;3.78
48003;BMP280;33768;48.578;11.574;2022-12-07T09:48:45;96414.16;;;4.12
48003;BMP280;33768;48.578;11.574;2022-12-07T09:55:26;96414.78;;;5.11
48003;BMP280;33768;48.578;11.574;2022-12-07T09:58:32;96409.66;;;5.40
48003;BMP280;33768;48.578;11.574;2022-12-07T10:01:38;96403.00;;;5.47
48003;BMP280;33768;48.578;11.574;2022-12-07T10:04:44;96415.06;;;5.35
48003;BMP280;33768;48.578;11.574;2022-12-07T10:07:49;96411.59;;;5.18
48003;BMP280;33768;48.578;11.574;2022-12-07T10:10:55;96401.25;;;5.11
48003;BMP280;33768;48.578;11.574;2022-12-07T10:14:11;96395.09;;;5.00
48003;BMP280;33768;48.578;11.574;2022-12-07T10:17:31;96390.41;;;5.00
48003;BMP280;33768;48.578;11.574;2022-12-07T10:20:35;96386.72;;;5.09
48003;BMP280;33768;48.578;11.574;2022-12-07T10:24:16;96383.06;;;5.17
48003;BMP280;33768;48.578;11.574;2022-12-07T10:27:29;96390.19;;;5.04
48003;BMP280;33768;48.578;11.574;2022-12-07T10:30:57;96388.72;;;5.08
48003;BMP280;33768;48.578;11.574;2022-12-07T10:34:02;96384.00;;;4.87
48003;BMP280;33768;48.578;11.574;2022-12-07T10:43:29;96386.50;;;5.07
48003;BMP280;33768;48.578;11.574;2022-12-07T10:54:07;96387.50;;;5.09
48003;BMP280;33768;48.578;11.574;2022-12-07T10:57:18;96384.28;;;5.11
48003;BMP280;33768;48.578;11.574;2022-12-07T11:11:15;96364.63;;;5.10
48003;BMP280;33768;48.578;11.574;2022-12-07T11:17:35;96352.81;;;5.19
48003;BMP280;33768;48.578;11.574;2022-12-07T11:21:07;96349.13;;;5.22
48003;BMP280;33768;48.578;11.574;2022-12-07T11:24:20;96350.59;;;5.28
48003;BMP280;33768;48.578;11.574;2022-12-07T11:27:42;96342.75;;;5.19
48003;BMP280;33768;48.578;11.574;2022-12-07T11:30:58;96340.00;;;5.14
48003;BMP280;33768;48.578;11.574;2022-12-07T11:37:46;96344.47;;;5.17
48003;BMP280;33768;48.578;11.574;2022-12-07T11:40:54;96332.41;;;5.23
48003;BMP280;33768;48.578;11.574;2022-12-07T11:44:15;96331.16;;;5.19
48003;BMP280;33768;48.578;11.574;2022-12-07T11:47:53;96334.84;;;5.21
48003;BMP280;33768;48.578;11.574;2022-12-07T11:51:00;96328.44;;;5.19
48003;BMP280;33768;48.578;11.574;2022-12-07T11:57:35;96325.00;;;5.18
48003;BMP280;33768;48.578;11.574;2022-12-07T12:00:42;96316.41;;;5.03
48003;BMP280;33768;48.578;11.574;2022-12-07T12:03:47;96319.59;;;5.02
48003;BMP280;33768;48.578;11.574;2022-12-07T12:06:53;96318.63;;;4.99
48003;BMP280;33768;48.578;11.574;2022-12-07T12:10:01;96307.81;;;5.05
48003;BMP280;33768;48.578;11.574;2022-12-07T12:20:00;96300.41;;;5.05
48003;BMP280;33768;48.578;11.574;2022-12-07T12:23:13;96306.09;;;5.02
48003;BMP280;33768;48.578;11.574;2022-12-07T12:26:21;96294.28;;;5.05
48003;BMP280;33768;48.578;11.574;2022-12-07T12:29:36;96293.28;;;5.02
48003;BMP280;33768;48.578;11.574;2022-12-07T12:32:44;96296.25;;;4.99
48003;BMP280;33768;48.578;11.574;2022-12-07T12:39:22;96296.94;;;4.83
48003;BMP280;33768;48.578;11.574;2022-12-07T12:42:44;96305.78;;;4.73
48003;BMP280;33768;48.578;11.574;2022-12-07T12:45:48;96306.78;;;4.70
48003;BMP280;33768;48.578;11.574;2022-12-07T12:58:47;96303.34;;;4.64
48003;BMP280;33768;48.578;11.574;2022-12-07T13:08:21;96279.72;;;4.59
48003;BMP280;33768;48.578;11.574;2022-12-07T13:11:38;96284.63;;;4.55
48003;BMP280;33768;48.578;11.574;2022-12-07T13:14:53;96265.69;;;4.50
48003;BMP280;33768;48.578;11.574;2022-12-07T13:17:59;96273.78;;;4.44
48003;BMP280;33768;48.578;11.574;2022-12-07T13:24:12;96274.78;;;4.47
48003;BMP280;33768;48.578;11.574;2022-12-07T13:27:17;96260.03;;;4.48
48003;BMP280;33768;48.578;11.574;2022-12-07T13:30:22;96263.25;;;4.52
48003;BMP280;33768;48.578;11.574;2022-12-07T13:33:28;96259.81;;;4.51
48003;BMP280;33768;48.578;11.574;2022-12-07T13:36:37;96259.06;;;4.51
48003;BMP280;33768;48.578;11.574;2022-12-07T13:39:46;96263.47;;;4.48
48003;BMP280;33768;48.578;11.574;2022-12-07T13:43:02;96255.63;;;4.45
48003;BMP280;33768;48.578;11.574;2022-12-07T13:46:08;96270.84;;;4.42
48003;BMP280;33768;48.578;11.574;2022-12-07T13:49:36;96262.97;;;4.44
48003;BMP280;33768;48.578;11.574;2022-12-07T13:52:44;96252.66;;;4.43
48003;BMP280;33768;48.578;11.574;2022-12-07T13:55:49;96263.22;;;4.41
48003;BMP280;33768;48.578;11.574;2022-12-07T13:58:54;96258.78;;;4.38
48003;BMP280;33768;48.578;11.574;2022-12-07T14:01:58;96268.13;;;4.37
48003;BMP280;33768;48.578;11.574;2022-12-07T14:11:20;96261.25;;;4.36
48003;BMP280;33768;48.578;11.574;2022-12-07T14:14:27;96260.75;;;4.32
48003;BMP280;33768;48.578;11.574;2022-12-07T14:17:32;96262.69;;;4.26
48003;BMP280;33768;48.578;11.574;2022-12-07T14:20:39;96259.22;;;4.20
48003;BMP280;33768;48.578;11.574;2022-12-07T14:23:44;96251.84;;;4.15
48003;BMP280;33768;48.578;11.574;2022-12-07T14:26:50;96247.16;;;4.10
48003;BMP280;33768;48.578;11.574;2022-12-07T14:29:54;96247.66;;;4.09
48003;BMP280;33768;48.578;11.574;2022-12-07T14:33:00;96254.06;;;4.11
48003;BMP280;33768;48.578;11.574;2022-12-07T14:36:05;96244.72;;;4.07
48003;BMP280;33768;48.578;11.574;2022-12-07T14:39:10;96240.28;;;4.04
48003;BMP280;33768;48.578;11.574;2022-12-07T14:42:14;96241.50;;;4.03
48003;BMP280;33768;48.578;11.574;2022-12-07T14:45:21;96241.00;;;3.99
48003;BMP280;33768;48.578;11.574;2022-12-07T14:48:26;96238.53;;;3.96
48003;BMP280;33768;48.578;11.574;2022-12-07T14:51:31;96242.97;;;3.93
48003;BMP280;33768;48.578;11.574;2022-12-07T14:54:36;96232.38;;;3.90
48003;BMP280;33768;48.578;11.574;2022-12-07T14:57:40;96233.34;;;3.87
48003;BMP280;33768;48.578;11.574;2022-12-07T15:00:44;96239.97;;;3.86
48003;BMP280;33768;48.578;11.574;2022-12-07T15:03:49;96231.09;;;3.80
48003;BMP280;33768;48.578;11.574;2022-12-07T15:06:56;96233.06;;;3.74
48003;BMP280;33768;48.578;11.574;2022-12-07T15:10:00;96245.09;;;3.73
48003;BMP280;33768;48.578;11.574;2022-12-07T15:13:04;96244.81;;;3.71
48003;BMP280;33768;48.578;11.574;2022-12-07T15:16:28;96235.47;;;3.67
48003;BMP280;33768;48.578;11.574;2022-12-07T15:19:32;96240.13;;;3.61
48003;BMP280;33768;48.578;11.574;2022-12-07T15:22:36;96233.47;;;3.56
48003;BMP280;33768;48.578;11.574;2022-12-07T15:25:41;96239.81;;;3.53
48003;BMP280;33768;48.578;11.574;2022-12-07T15:28:46;96241.53;;;3.51
48003;BMP280;33768;48.578;11.574;2022-12-07T15:31:51;96245.44;;;3.50
48003;BMP280;33768;48.578;11.574;2022-12-07T15:34:56;96241.75;;;3.47
48003;BMP280;33768;48.578;11.574;2022-12-07T15:38:00;96238.81;;;3.45
48003;BMP280;33768;48.578;11.574;2022-12-07T15:41:05;96228.50;;;3.44
48003;BMP280;33768;48.578;11.574;2022-12-07T15:44:12;96236.06;;;3.40
48003;BMP280;33768;48.578;11.574;2022-12-07T15:47:37;96230.19;;;3.42
48003;BMP280;33768;48.578;11.574;2022-12-07T15:50:42;96226.97;;;3.38
48003;BMP280;33768;48.578;11.574;2022-12-07T15:53:46;96230.16;;;3.36
48003;BMP280;33768;48.578;11.574;2022-12-07T15:56:51;96224.03;;;3.36
48003;BMP280;33768;48.578;11.574;2022-12-07T15:59:55;96217.66;;;3.33
48003;BMP280;33768;48.578;11.574;2022-12-07T16:02:59;96227.44;;;3.31
48003;BMP280;33768;48.578;11.574;2022-12-07T16:06:04;96223.25;;;3.30
48003;BMP280;33768;48.578;11.574;2022-12-07T16:09:08;96219.81;;;3.29
48003;BMP280;33768;48.578;11.574;2022-12-07T16:12:13;96226.66;;;3.25
48003;BMP280;33768;48.578;11.574;2022-12-07T16:15:17;96227.34;;;3.20
48003;BMP280;33768;48.578;11.574;2022-12-07T16:18:22;96228.81;;;3.15
48003;BMP280;33768;48.578;11.574;2022-12-07T16:21:26;96223.88;;;3.14
48003;BMP280;33768;48.578;11.574;2022-12-07T16:24:31;96230.78;;;3.15
48003;BMP280;33768;48.578;11.574;2022-12-07T16:27:35;96226.13;;;3.15
48003;BMP280;33768;48.578;11.574;2022-12-07T16:30:40;96220.72;;;3.15
48003;BMP280;33768;48.578;11.574;2022-12-07T16:33:44;96223.88;;;3.14
48003;BMP280;33768;48.578;11.574;2022-12-07T16:36:49;96225.13;;;3.13
48003;BMP280;33768;48.578;11.574;2022-12-07T16:39:53;96215.78;;;3.09
48003;BMP280;33768;48.578;11.574;2022-12-07T16:42:57;96225.09;;;3.08
48003;BMP280;33768;48.578;11.574;2022-12-07T16:46:03;96219.44;;;3.06
48003;BMP280;33768;48.578;11.574;2022-12-07T16:49:16;96221.88;;;3.04
48003;BMP280;33768;48.578;11.574;2022-12-07T16:52:21;96221.88;;;3.04
48003;BMP280;33768;48.578;11.574;2022-12-07T16:55:25;96220.41;;;3.03
48003;BMP280;33768;48.578;11.574;2022-12-07T16:58:30;96219.91;;;3.04
48003;BMP280;33768;48.578;11.574;2022-12-07T17:01:35;96228.50;;;3.03
48003;BMP280;33768;48.578;11.574;2022-12-07T17:04:40;96220.13;;;3.01
48003;BMP280;33768;48.578;11.574;2022-12-07T17:07:46;96216.94;;;3.02
48003;BMP280;33768;48.578;11.574;2022-12-07T17:10:50;96215.47;;;3.01
48003;BMP280;33768;48.578;11.574;2022-12-07T17:13:54;96212.31;;;3.03
48003;BMP280;33768;48.578;11.574;2022-12-07T17:17:17;96223.09;;;3.03
48003;BMP280;33768;48.578;11.574;2022-12-07T17:20:23;96223.09;;;3.03
48003;BMP280;33768;48.578;11.574;2022-12-07T17:23:27;96210.34;;;3.03
48003;BMP280;33768;48.578;11.574;2022-12-07T17:26:32;96215.47;;;3.01
48003;BMP280;33768;48.578;11.574;2022-12-07T17:29:36;96215.00;;;3.03
48003;BMP280;33768;48.578;11.574;2022-12-07T17:32:40;96215.00;;;3.03
48003;BMP280;33768;48.578;11.574;2022-12-07T17:35:45;96213.31;;;3.05
48003;BMP280;33768;48.578;11.574;2022-12-07T17:38:50;96214.78;;;3.06
48003;BMP280;33768;48.578;11.574;2022-12-07T17:41:54;96204.25;;;3.08
48003;BMP280;33768;48.578;11.574;2022-12-07T17:45:17;96202.75;;;3.07
48003;BMP280;33768;48.578;11.574;2022-12-07T17:48:20;96205.72;;;3.09
48003;BMP280;33768;48.578;11.574;2022-12-07T17:51:25;96207.22;;;3.10
48003;BMP280;33768;48.578;11.574;2022-12-07T17:54:48;96201.06;;;3.10
48003;BMP280;33768;48.578;11.574;2022-12-07T17:57:52;96209.66;;;3.08
48003;BMP280;33768;48.578;11.574;2022-12-07T18:00:56;96193.47;;;3.08
48003;BMP280;33768;48.578;11.574;2022-12-07T18:04:01;96201.56;;;3.08
48003;BMP280;33768;48.578;11.574;2022-12-07T18:07:05;96185.84;;;3.07
48003;BMP280;33768;48.578;11.574;2022-12-07T18:10:10;96194.44;;;3.05
48003;BMP280;33768;48.578;11.574;2022-12-07T18:13:14;96200.75;;;3.02
48003;BMP280;33768;48.578;11.574;2022-12-07T18:16:37;96202.97;;;2.98
48003;BMP280;33768;48.578;11.574;2022-12-07T18:19:41;96199.00;;;2.94
48003;BMP280;33768;48.578;11.574;2022-12-07T18:22:45;96201.44;;;2.92
48003;BMP280;33768;48.578;11.574;2022-12-07T18:25:50;96198.72;;;2.92
48003;BMP280;33768;48.578;11.574;2022-12-07T18:28:54;96197.00;;;2.89
48003;BMP280;33768;48.578;11.574;2022-12-07T18:31:59;96205.59;;;2.87
48003;BMP280;33768;48.578;11.574;2022-12-07T18:35:03;96204.59;;;2.85
48003;BMP280;33768;48.578;11.574;2022-12-07T18:38:07;96206.53;;;2.84
48003;BMP280;33768;48.578;11.574;2022-12-07T18:41:13;96198.44;;;2.84
48003;BMP280;33768;48.578;11.574;2022-12-07T18:44:18;96207.75;;;2.83
48003;BMP280;33768;48.578;11.574;2022-12-07T18:47:22;96204.78;;;2.81
48003;BMP280;33768;48.578;11.574;2022-12-07T18:50:26;96199.66;;;2.83
48003;BMP280;33768;48.578;11.574;2022-12-07T18:53:31;96198.69;;;2.86
48003;BMP280;33768;48.578;11.574;2022-12-07T18:56:35;96206.53;;;2.84
48003;BMP280;33768;48.578;11.574;2022-12-07T18:59:39;96198.19;;;2.82
48003;BMP280;33768;48.578;11.574;2022-12-07T19:02:51;96203.59;;;2.82
48003;BMP280;33768;48.578;11.574;2022-12-07T19:05:56;96200.63;;;2.80
48003;BMP280;33768;48.578;11.574;2022-12-07T19:09:01;96197.94;;;2.80
48003;BMP280;33768;48.578;11.574;2022-12-07T19:12:10;96195.94;;;2.76
48003;BMP280;33768;48.578;11.574;2022-12-07T19:15:15;96197.66;;;2.79
48003;BMP280;33768;48.578;11.574;2022-12-07T19:18:20;96200.09;;;2.77
48003;BMP280;33768;48.578;11.574;2022-12-07T19:21:24;96189.31;;;2.77
48003;BMP280;33768;48.578;11.574;2022-12-07T19:24:28;96185.63;;;2.74
48003;BMP280;33768;48.578;11.574;2022-12-07T19:27:33;96190.28;;;2.74
48003;BMP280;33768;48.578;11.574;2022-12-07T19:30:37;96191.00;;;2.74
48003;BMP280;33768;48.578;11.574;2022-12-07T19:33:41;96183.66;;;2.75